createdAt,value
2022-10-18T00:01:01.638Z,18.02
2022-10-18T00:06:17.610Z,19.33
2022-10-18T00:08:45.621Z,18.85
2022-10-18T00:11:13.323Z,14.15
2022-10-18T00:13:41.370Z,16.20
2022-10-18T00:16:12.947Z,14.27
2022-10-18T00:18:41.513Z,17.02
2022-10-18T00:21:12.893Z,16.17
2022-10-18T00:23:43.142Z,17.15
2022-10-18T00:26:13.320Z,17.85
2022-10-18T00:28:42.095Z,14.30
2022-10-18T00:31:11.745Z,11.88
2022-10-18T00:33:40.759Z,14.38
2022-10-18T00:36:08.742Z,13.48
2022-10-18T00:38:37.600Z,18.83
2022-10-18T00:41:08.926Z,18.23
2022-10-18T00:43:53.036Z,12.13
2022-10-18T00:46:21.305Z,16.95
2022-10-18T00:48:49.944Z,11.80
2022-10-18T00:51:19.970Z,10.93
2022-10-18T00:53:49.019Z,6.78
2022-10-18T00:56:18.695Z,11.68
2022-10-18T00:58:48.650Z,12.80
2022-10-18T01:01:16.806Z,8.95
2022-10-18T01:03:44.828Z,9.50
2022-10-18T01:06:12.651Z,9.63
2022-10-18T01:08:59.160Z,9.32
2022-10-18T01:11:55.240Z,10.20
2022-10-18T01:14:35.141Z,9.07
2022-10-18T01:17:09.820Z,9.73
2022-10-18T01:20:04.480Z,8.98
2022-10-18T01:22:37.537Z,9.45
2022-10-18T01:25:21.282Z,8.27
2022-10-18T01:27:58.171Z,7.85
2022-10-18T01:30:36.881Z,9.15
2022-10-18T01:33:11.823Z,7.75
2022-10-18T01:35:43.794Z,10.25
2022-10-18T01:38:17.103Z,12.77
2022-10-18T01:40:48.658Z,10.93
2022-10-18T01:43:18.400Z,10.80
2022-10-18T01:45:48.374Z,6.63
2022-10-18T01:48:18.251Z,10.10
2022-10-18T01:50:46.305Z,8.10
2022-10-18T01:53:38.190Z,8.02
2022-10-18T01:56:19.257Z,17.52
2022-10-18T01:58:56.193Z,9.75
2022-10-18T02:01:34.450Z,10.30
2022-10-18T02:04:12.100Z,9.05
2022-10-18T02:06:46.147Z,15.23
2022-10-18T02:09:20.571Z,13.18
2022-10-18T02:11:52.242Z,8.32
2022-10-18T02:14:21.380Z,11.88
2022-10-18T02:16:54.510Z,10.85
2022-10-18T02:19:27.031Z,11.93
2022-10-18T02:21:58.203Z,21.52
2022-10-18T02:24:31.369Z,27.88
2022-10-18T02:26:59.446Z,23.20
2022-10-18T02:29:27.624Z,27.17
2022-10-18T02:32:03.449Z,22.80
2022-10-18T02:34:37.509Z,21.67
2022-10-18T02:37:06.093Z,28.02
2022-10-18T02:39:36.720Z,18.42
2022-10-18T02:42:06.739Z,17.52
2022-10-18T02:44:34.646Z,19.83
2022-10-18T02:47:05.141Z,17.35
2022-10-18T02:49:32.847Z,14.98
2022-10-18T02:52:00.821Z,22.50
2022-10-18T02:54:28.714Z,19.73
2022-10-18T02:56:56.615Z,19.67
2022-10-18T02:59:24.404Z,23.52
2022-10-18T03:01:52.408Z,20.13
2022-10-18T03:04:21.791Z,22.02
2022-10-18T03:06:49.877Z,16.23
2022-10-18T03:09:17.749Z,17.73
2022-10-18T03:11:45.606Z,15.68
2022-10-18T03:14:13.438Z,19.90
2022-10-18T03:16:41.481Z,16.70
2022-10-18T03:19:09.305Z,20.67
2022-10-18T03:21:38.486Z,22.85
2022-10-18T03:24:07.374Z,24.27
2022-10-18T03:26:35.242Z,20.25
2022-10-18T03:29:03.084Z,21.63
2022-10-18T03:34:04.156Z,23.48
2022-10-18T03:36:33.746Z,20.90
2022-10-18T03:39:02.929Z,19.75
2022-10-18T03:41:30.912Z,18.55
2022-10-18T03:43:58.696Z,21.67
2022-10-18T03:46:26.957Z,18.67
2022-10-18T03:48:54.646Z,19.42
2022-10-18T03:51:22.627Z,17.63
2022-10-18T03:53:50.453Z,17.83
2022-10-18T03:56:19.682Z,22.42
2022-10-18T03:58:47.481Z,20.80
2022-10-18T04:01:15.383Z,16.90
2022-10-18T04:03:43.087Z,18.50
2022-10-18T04:06:11.233Z,21.00
2022-10-18T04:08:38.979Z,15.38
2022-10-18T04:11:09.753Z,19.85
2022-10-18T04:13:39.101Z,16.52
2022-10-18T04:16:07.297Z,24.77
2022-10-18T04:18:35.097Z,18.52
2022-10-18T04:21:03.082Z,25.15
2022-10-18T04:23:32.809Z,17.45
2022-10-18T04:26:04.557Z,17.02
2022-10-18T04:28:32.285Z,17.08
2022-10-18T04:31:01.817Z,18.35
2022-10-18T04:33:29.650Z,17.17
2022-10-18T04:35:57.524Z,18.52
2022-10-18T04:38:25.284Z,18.23
2022-10-18T04:40:53.302Z,18.33
2022-10-18T04:43:21.128Z,18.13
2022-10-18T04:45:51.046Z,24.98
2022-10-18T04:48:21.141Z,16.95
2022-10-18T04:50:49.727Z,21.73
2022-10-18T04:53:18.775Z,17.35
2022-10-18T04:55:48.841Z,14.95
2022-10-18T04:58:16.670Z,22.30
2022-10-18T05:00:44.784Z,16.20
2022-10-18T05:03:14.170Z,15.23
2022-10-18T05:06:03.132Z,17.05
2022-10-18T05:08:32.725Z,18.25
2022-10-18T05:11:01.075Z,19.35
2022-10-18T05:13:28.886Z,27.63
2022-10-18T05:15:59.305Z,16.75
2022-10-18T05:18:27.329Z,21.77
2022-10-18T05:20:56.651Z,16.42
2022-10-18T05:23:25.265Z,19.92
2022-10-18T05:25:53.141Z,16.60
2022-10-18T05:28:38.564Z,19.48
2022-10-18T05:31:09.533Z,21.58
2022-10-18T05:33:38.070Z,24.42
2022-10-18T05:36:08.074Z,24.05
2022-10-18T05:41:08.768Z,27.02
2022-10-18T05:43:36.689Z,29.27
2022-10-18T05:46:06.470Z,31.23
2022-10-18T05:48:35.967Z,25.70
2022-10-18T05:51:03.905Z,24.35
2022-10-18T05:53:37.584Z,15.05
2022-10-18T05:56:07.070Z,22.08
2022-10-18T05:58:35.179Z,18.75
2022-10-18T06:01:03.986Z,17.90
2022-10-18T06:03:32.415Z,18.38
2022-10-18T06:06:01.371Z,19.23
2022-10-18T06:08:29.144Z,20.40
2022-10-18T06:10:58.413Z,17.73
2022-10-18T06:13:26.253Z,20.58
2022-10-18T06:15:56.890Z,16.73
2022-10-18T06:18:24.682Z,17.42
2022-10-18T06:20:57.954Z,14.55
2022-10-18T06:23:25.885Z,14.63
2022-10-18T06:25:53.951Z,21.50
2022-10-18T06:28:23.013Z,15.30
2022-10-18T06:30:50.887Z,12.93
2022-10-18T06:33:18.885Z,12.63
2022-10-18T06:35:55.412Z,13.10
2022-10-18T06:38:23.356Z,18.67
2022-10-18T06:40:51.522Z,13.00
2022-10-18T06:43:21.478Z,16.52
2022-10-18T06:45:51.460Z,20.23
2022-10-18T06:50:56.743Z,18.63
2022-10-18T06:53:24.831Z,19.08
2022-10-18T06:55:53.008Z,15.18
2022-10-18T06:58:20.841Z,12.98
2022-10-18T07:00:48.700Z,22.75
2022-10-18T07:03:17.720Z,20.33
2022-10-18T07:05:45.735Z,24.52
2022-10-18T07:08:13.560Z,22.90
2022-10-18T07:10:41.518Z,26.00
2022-10-18T07:16:02.274Z,30.02
2022-10-18T07:18:31.598Z,23.08
2022-10-18T07:21:02.392Z,23.52
2022-10-18T07:23:30.168Z,24.00
2022-10-18T07:25:58.193Z,26.52
2022-10-18T07:28:26.440Z,25.17
2022-10-18T07:30:54.488Z,26.83
2022-10-18T07:33:23.165Z,25.75
2022-10-18T07:35:52.415Z,32.28
2022-10-18T07:38:20.346Z,27.60
2022-10-18T07:40:48.364Z,20.52
2022-10-18T07:43:16.090Z,22.38
2022-10-18T07:45:52.798Z,28.50
2022-10-18T07:48:20.653Z,28.08
2022-10-18T07:50:48.737Z,24.17
2022-10-18T07:53:17.852Z,22.10
2022-10-18T07:55:46.258Z,23.83
2022-10-18T07:58:13.958Z,26.55
2022-10-18T08:00:41.839Z,25.13
2022-10-18T08:03:09.725Z,23.08
2022-10-18T08:05:37.611Z,23.38
2022-10-18T08:08:07.971Z,26.67
2022-10-18T08:10:37.730Z,26.08
2022-10-18T08:13:05.413Z,25.60
2022-10-18T08:15:33.505Z,29.55
2022-10-18T08:18:01.605Z,20.80
2022-10-18T08:20:31.369Z,20.98
2022-10-18T08:23:00.665Z,26.23
2022-10-18T08:25:29.596Z,22.35
2022-10-18T08:27:58.906Z,19.92
2022-10-18T08:30:26.798Z,21.50
2022-10-18T08:32:54.599Z,24.10
2022-10-18T08:35:22.751Z,20.98
2022-10-18T08:37:51.197Z,25.77
2022-10-18T08:40:20.264Z,23.65
2022-10-18T08:43:08.080Z,21.13
2022-10-18T08:45:42.994Z,33.47
2022-10-18T08:48:21.790Z,28.92
2022-10-18T08:50:52.137Z,23.40
2022-10-18T08:53:28.610Z,30.17
2022-10-18T08:56:03.666Z,24.67
2022-10-18T08:58:34.298Z,22.95
2022-10-18T09:01:13.896Z,20.88
2022-10-18T09:04:01.984Z,20.00
2022-10-18T09:06:36.038Z,19.70
2022-10-18T09:09:23.624Z,22.63
2022-10-18T09:12:02.201Z,14.25
2022-10-18T09:14:49.849Z,21.27
2022-10-18T09:17:29.034Z,18.75
2022-10-18T09:20:17.574Z,19.52
2022-10-18T09:22:53.540Z,18.17
2022-10-18T09:25:23.622Z,17.17
2022-10-18T09:27:57.270Z,19.08
2022-10-18T09:30:40.610Z,17.30
2022-10-18T09:33:31.698Z,21.65
2022-10-18T09:36:02.794Z,19.40
2022-10-18T09:38:33.360Z,12.20
2022-10-18T09:41:05.501Z,15.43
2022-10-18T09:43:48.198Z,16.27
2022-10-18T09:46:19.338Z,16.20
2022-10-18T09:48:52.290Z,14.30
2022-10-18T09:51:22.748Z,15.77
2022-10-18T09:54:03.412Z,19.73
2022-10-18T09:56:37.861Z,17.63
2022-10-18T09:59:29.762Z,18.20
2022-10-18T10:01:58.912Z,15.63
2022-10-18T10:04:27.009Z,26.15
2022-10-18T10:06:56.781Z,16.20
2022-10-18T10:09:29.353Z,18.40
2022-10-18T10:11:58.163Z,11.63
2022-10-18T10:14:27.747Z,13.85
2022-10-18T10:16:57.705Z,15.38
2022-10-18T10:19:33.205Z,12.45
2022-10-18T10:22:05.849Z,13.30
2022-10-18T10:24:40.813Z,15.63
2022-10-18T10:27:18.073Z,11.00
2022-10-18T10:29:53.825Z,12.45
2022-10-18T10:32:23.482Z,17.35
2022-10-18T10:34:53.433Z,11.60
2022-10-18T10:37:32.949Z,13.23
2022-10-18T10:40:18.168Z,12.43
2022-10-18T10:43:08.897Z,13.20
2022-10-18T10:46:02.862Z,11.68
2022-10-18T10:48:33.918Z,9.95
2022-10-18T10:51:06.981Z,12.90
2022-10-18T10:53:50.037Z,12.75
2022-10-18T10:56:24.350Z,16.40
2022-10-18T10:58:53.353Z,11.15
2022-10-18T11:01:28.405Z,11.32
2022-10-18T11:03:58.727Z,11.70
2022-10-18T11:06:36.810Z,11.20
2022-10-18T11:09:12.729Z,10.85
2022-10-18T11:11:46.826Z,13.95
2022-10-18T11:14:26.546Z,8.52
2022-10-18T11:17:07.733Z,11.23
2022-10-18T11:19:43.674Z,10.95
2022-10-18T11:22:19.805Z,8.45
2022-10-18T11:24:47.911Z,12.93
2022-10-18T11:27:23.908Z,8.50
2022-10-18T11:30:26.210Z,13.98
2022-10-18T11:33:02.770Z,13.50
2022-10-18T11:35:40.457Z,14.82
2022-10-18T11:38:23.600Z,10.55
2022-10-18T11:41:07.557Z,13.73
2022-10-18T11:44:01.733Z,16.08
2022-10-18T11:46:52.593Z,19.85
2022-10-18T11:49:34.606Z,31.38
2022-10-18T11:52:14.396Z,18.60
2022-10-18T11:55:07.216Z,19.45
2022-10-18T11:57:45.633Z,16.42
2022-10-18T12:00:28.602Z,18.27
2022-10-18T12:03:35.235Z,14.30
2022-10-18T12:06:06.959Z,14.93
2022-10-18T12:08:38.430Z,14.93
2022-10-18T12:11:13.712Z,20.33
2022-10-18T12:13:47.408Z,20.15
2022-10-18T12:16:16.696Z,19.75
2022-10-18T12:21:29.985Z,18.52
2022-10-18T12:24:02.139Z,24.83
2022-10-18T12:26:33.109Z,21.00
2022-10-18T12:29:14.102Z,14.45
2022-10-18T12:31:46.245Z,15.07
2022-10-18T12:37:17.033Z,18.75
2022-10-18T12:42:44.158Z,18.38
2022-10-18T12:45:26.407Z,20.75
2022-10-18T12:47:55.075Z,19.60
2022-10-18T12:50:31.537Z,12.18
2022-10-18T12:53:06.157Z,18.20
2022-10-18T12:55:37.651Z,16.88
2022-10-18T13:01:01.887Z,12.27
2022-10-18T13:03:40.077Z,12.82
2022-10-18T13:06:08.544Z,16.60
2022-10-18T13:08:42.738Z,14.25
2022-10-18T13:11:30.213Z,10.90
2022-10-18T13:14:29.250Z,18.85
2022-10-18T13:17:04.393Z,18.52
2022-10-18T13:19:39.945Z,15.50
2022-10-18T13:22:29.658Z,10.80
2022-10-18T13:25:04.217Z,13.13
2022-10-18T13:27:45.606Z,18.02
2022-10-18T13:33:06.392Z,12.13
2022-10-18T13:35:59.861Z,12.77
2022-10-18T13:38:37.288Z,12.35
2022-10-18T13:41:08.333Z,14.88
2022-10-18T13:43:56.897Z,17.13
2022-10-18T13:46:51.298Z,13.48
2022-10-18T13:49:32.809Z,23.75
2022-10-18T13:52:09.923Z,17.15
2022-10-18T13:55:05.603Z,16.25
2022-10-18T13:57:49.053Z,12.93
2022-10-18T14:00:33.725Z,16.40
2022-10-18T14:03:44.026Z,14.35
2022-10-18T14:06:11.822Z,19.42
2022-10-18T14:08:45.621Z,12.70
2022-10-18T14:11:25.312Z,12.52
2022-10-18T14:13:56.877Z,13.82
2022-10-18T14:16:31.877Z,13.90
2022-10-18T14:19:09.542Z,14.20
2022-10-18T14:21:42.957Z,12.05
2022-10-18T14:24:19.922Z,14.88
2022-10-18T14:26:48.366Z,14.13
2022-10-18T14:29:19.996Z,16.92
2022-10-18T14:31:54.565Z,18.08
2022-10-18T14:34:23.145Z,16.05
2022-10-18T14:36:52.742Z,20.17
2022-10-18T14:39:23.205Z,15.85
2022-10-18T14:41:52.829Z,23.30
2022-10-18T14:44:22.956Z,22.25
2022-10-18T14:46:52.232Z,16.08
2022-10-18T14:49:21.435Z,18.73
2022-10-18T14:51:53.799Z,19.17
2022-10-18T14:54:29.146Z,19.08
2022-10-18T14:57:00.389Z,20.45
2022-10-18T14:59:30.808Z,26.42
2022-10-18T15:02:01.182Z,26.52
2022-10-18T15:04:32.865Z,18.52
2022-10-18T15:07:05.050Z,31.33
2022-10-18T15:09:35.850Z,31.95
2022-10-18T15:12:06.010Z,38.22
2022-10-18T15:14:35.445Z,27.73
2022-10-18T15:17:08.386Z,28.70
2022-10-18T15:19:39.256Z,22.02
2022-10-18T15:25:15.731Z,27.40
2022-10-18T15:27:46.172Z,35.08
2022-10-18T15:30:19.260Z,30.10
2022-10-18T15:32:52.770Z,25.83
2022-10-18T15:35:26.417Z,27.85
2022-10-18T15:37:57.884Z,19.70
2022-10-18T15:40:35.257Z,33.28
2022-10-18T15:43:06.599Z,25.35
2022-10-18T15:45:38.859Z,22.50
2022-10-18T15:48:21.509Z,26.65
2022-10-18T15:50:51.239Z,25.48
2022-10-18T15:53:46.091Z,19.55
2022-10-18T15:56:33.712Z,16.45
2022-10-18T15:59:04.520Z,16.52
2022-10-18T16:01:43.476Z,18.70
2022-10-18T16:04:19.472Z,15.60
2022-10-18T16:06:47.577Z,14.98
2022-10-18T16:09:20.153Z,13.07
2022-10-18T16:11:54.267Z,13.98
2022-10-18T16:14:24.238Z,22.58
2022-10-18T16:16:56.676Z,35.65
2022-10-18T16:19:24.930Z,80.88
2022-10-18T16:21:54.737Z,27.15
2022-10-18T16:24:24.322Z,17.75
2022-10-18T16:26:53.101Z,13.93
2022-10-18T16:29:25.869Z,18.20
2022-10-18T16:31:57.830Z,17.15
2022-10-18T16:34:26.976Z,26.65
2022-10-18T16:36:55.845Z,31.83
2022-10-18T16:39:25.426Z,26.95
2022-10-18T16:41:53.475Z,29.00
2022-10-18T16:44:21.316Z,34.75
2022-10-18T16:46:52.387Z,29.55
2022-10-18T16:49:25.425Z,36.72
2022-10-18T16:51:54.484Z,33.25
2022-10-18T16:54:22.782Z,28.15
2022-10-18T16:56:52.491Z,41.08
2022-10-18T16:59:24.598Z,43.35
2022-10-18T17:01:53.370Z,41.90
2022-10-18T17:04:21.112Z,34.60
2022-10-18T17:06:49.093Z,30.60
2022-10-18T17:09:17.478Z,22.60
2022-10-18T17:11:45.491Z,24.23
2022-10-18T17:14:14.564Z,27.38
2022-10-18T17:16:45.431Z,25.02
2022-10-18T17:19:16.024Z,28.65
2022-10-18T17:21:44.366Z,19.98
2022-10-18T17:24:12.154Z,20.77
2022-10-18T17:26:40.027Z,19.08
2022-10-18T17:29:09.101Z,20.02
2022-10-18T17:31:38.347Z,17.67
2022-10-18T17:34:06.265Z,22.85
2022-10-18T17:36:34.929Z,27.25
2022-10-18T17:39:02.782Z,21.67
2022-10-18T17:41:31.321Z,19.15
2022-10-18T17:43:59.606Z,18.23
2022-10-18T17:46:27.864Z,21.85
2022-10-18T17:48:56.979Z,23.45
2022-10-18T17:51:25.274Z,22.33
2022-10-18T17:53:52.945Z,27.70
2022-10-18T17:56:20.856Z,25.50
2022-10-18T17:58:51.738Z,28.67
2022-10-18T18:01:22.004Z,35.83
2022-10-18T18:03:50.424Z,38.38
2022-10-18T18:06:21.541Z,36.00
2022-10-18T18:08:50.700Z,35.05
2022-10-18T18:11:19.468Z,30.70
2022-10-18T18:13:47.422Z,34.53
2022-10-18T18:16:17.763Z,31.48
2022-10-18T18:18:46.756Z,26.88
2022-10-18T18:21:14.813Z,29.13
2022-10-18T18:23:44.373Z,28.23
2022-10-18T18:26:12.508Z,26.70
2022-10-18T18:28:40.442Z,28.45
2022-10-18T18:31:09.614Z,31.73
2022-10-18T18:33:38.264Z,27.95
2022-10-18T18:36:07.285Z,23.77
2022-10-18T18:38:36.518Z,28.05
2022-10-18T18:41:08.605Z,25.35
2022-10-18T18:43:37.212Z,28.88
2022-10-18T18:46:06.066Z,24.45
2022-10-18T18:48:34.775Z,33.78
2022-10-18T18:51:03.295Z,34.63
2022-10-18T18:53:31.673Z,34.85
2022-10-18T18:56:04.131Z,29.42
2022-10-18T18:58:35.559Z,28.80
2022-10-18T19:01:08.496Z,32.67
2022-10-18T19:03:38.291Z,30.65
2022-10-18T19:06:07.567Z,32.15
2022-10-18T19:08:36.454Z,30.73
2022-10-18T19:11:08.183Z,36.53
2022-10-18T19:13:38.346Z,30.48
2022-10-18T19:16:23.136Z,29.13
2022-10-18T19:18:52.926Z,29.98
2022-10-18T19:21:21.970Z,30.13
2022-10-18T19:23:50.283Z,25.98
2022-10-18T19:26:29.609Z,27.02
2022-10-18T19:29:05.329Z,24.20
2022-10-18T19:31:34.890Z,20.85
2022-10-18T19:34:03.978Z,21.52
2022-10-18T19:36:32.187Z,24.35
2022-10-18T19:39:00.120Z,27.17
2022-10-18T19:41:29.170Z,23.80
2022-10-18T19:43:57.387Z,22.70
2022-10-18T19:46:26.901Z,21.42
2022-10-18T19:48:54.874Z,24.02
2022-10-18T19:51:27.074Z,21.85
2022-10-18T19:53:56.525Z,24.75
2022-10-18T19:56:25.630Z,22.60
2022-10-18T19:58:53.957Z,23.05
2022-10-18T20:01:22.691Z,22.58
2022-10-18T20:03:52.053Z,25.10
2022-10-18T20:06:20.670Z,20.98
2022-10-18T20:08:49.149Z,24.20
2022-10-18T20:11:20.429Z,22.00
2022-10-18T20:13:48.199Z,23.13
2022-10-18T20:16:18.199Z,23.08
2022-10-18T20:18:46.473Z,30.52
2022-10-18T20:21:17.970Z,30.65
2022-10-18T20:23:45.767Z,30.57
2022-10-18T20:26:19.647Z,34.03
2022-10-18T20:28:56.115Z,29.90
2022-10-18T20:31:26.247Z,39.00
2022-10-18T20:33:56.012Z,33.45
2022-10-18T20:36:26.065Z,33.53
2022-10-18T20:38:54.824Z,38.25
2022-10-18T20:41:24.833Z,37.92
2022-10-18T20:43:53.548Z,37.05
2022-10-18T20:46:22.232Z,38.75
2022-10-18T20:48:50.429Z,41.75
2022-10-18T20:51:18.864Z,46.05
2022-10-18T20:53:48.274Z,48.67
2022-10-18T20:56:20.108Z,52.42
2022-10-18T20:58:49.458Z,52.70
2022-10-18T21:01:19.538Z,56.72
2022-10-18T21:03:49.017Z,57.53
2022-10-18T21:06:18.881Z,50.08
2022-10-18T21:08:52.749Z,53.47
2022-10-18T21:11:20.832Z,60.03
2022-10-18T21:13:51.417Z,57.72
2022-10-18T21:16:19.404Z,53.03
2022-10-18T21:18:47.472Z,57.60
2022-10-18T21:21:17.643Z,55.28
2022-10-18T21:23:46.034Z,53.47
2022-10-18T21:26:17.249Z,51.25
2022-10-18T21:28:44.998Z,55.67
2022-10-18T21:31:15.842Z,46.28
2022-10-18T21:33:44.582Z,49.33
2022-10-18T21:36:13.248Z,44.72
2022-10-18T21:38:44.151Z,43.28
2022-10-18T21:41:13.986Z,45.13
2022-10-18T21:43:45.150Z,48.95
2022-10-18T21:46:14.641Z,60.95
2022-10-18T21:48:45.090Z,54.72
2022-10-18T21:51:14.881Z,61.72
2022-10-18T21:53:43.704Z,44.17
2022-10-18T21:56:13.725Z,50.60
2022-10-18T21:58:43.871Z,49.05
2022-10-18T22:01:14.054Z,38.65
2022-10-18T22:03:42.454Z,41.13
2022-10-18T22:06:14.625Z,38.47
2022-10-18T22:11:12.494Z,36.70
2022-10-18T22:13:40.826Z,33.45
2022-10-18T22:16:14.247Z,57.35
2022-10-18T22:18:42.317Z,22.90
2022-10-18T22:21:12.433Z,21.67
2022-10-18T22:23:41.856Z,28.20
2022-10-18T22:26:13.133Z,35.85
2022-10-18T22:28:42.629Z,55.43
2022-10-18T22:31:16.950Z,41.25
2022-10-18T22:33:45.274Z,39.88
2022-10-18T22:36:13.817Z,39.95
2022-10-18T22:38:41.542Z,41.88
2022-10-18T22:41:11.691Z,32.22
2022-10-18T22:43:40.020Z,41.60
2022-10-18T22:46:10.138Z,32.03
2022-10-18T22:48:39.849Z,31.15
2022-10-18T22:51:08.119Z,31.50
2022-10-18T22:53:36.877Z,23.15
2022-10-18T22:56:06.172Z,26.38
2022-10-18T22:58:34.066Z,19.00
2022-10-18T23:01:03.090Z,22.55
2022-10-18T23:03:31.000Z,21.85
2022-10-18T23:06:00.507Z,21.13
2022-10-18T23:08:28.878Z,17.60
2022-10-18T23:10:59.673Z,17.30
2022-10-18T23:13:28.454Z,16.77
2022-10-18T23:16:04.459Z,19.10
2022-10-18T23:18:33.731Z,22.02
2022-10-18T23:21:04.816Z,17.13
2022-10-18T23:23:35.380Z,22.55
2022-10-18T23:26:05.190Z,20.00
2022-10-18T23:28:35.510Z,21.92
2022-10-18T23:31:08.795Z,20.75
2022-10-18T23:33:37.046Z,26.83
2022-10-18T23:36:08.349Z,18.17
2022-10-18T23:38:37.081Z,22.30
2022-10-18T23:41:05.411Z,20.88
2022-10-18T23:43:33.218Z,25.00
2022-10-18T23:46:01.603Z,22.42
2022-10-18T23:48:29.592Z,23.42
2022-10-18T23:50:57.746Z,27.85
2022-10-18T23:53:26.943Z,17.70
2022-10-18T23:55:56.132Z,18.45
2022-10-18T23:58:24.483Z,15.73
